createdAt,value
2023-08-15T17:15:13.353Z,5.10
2023-08-15T17:17:44.679Z,5.00
2023-08-15T17:20:15.983Z,5.30
2023-08-15T17:23:20.796Z,5.00
2023-08-15T17:25:44.442Z,5.80
2023-08-15T17:28:17.818Z,5.70
2023-08-15T17:31:16.622Z,5.50
2023-08-15T17:33:50.543Z,5.50
2023-08-15T17:36:30.649Z,5.60
2023-08-15T17:38:59.302Z,5.60
2023-08-15T17:41:29.703Z,5.60
2023-08-15T17:44:06.178Z,5.80
2023-08-15T17:46:39.116Z,5.60
2023-08-15T17:49:27.299Z,6.00
2023-08-15T17:55:06.745Z,7.30
2023-08-15T17:57:35.534Z,7.00
2023-08-15T18:00:18.410Z,8.70
2023-08-15T18:03:06.127Z,9.50
2023-08-15T18:05:35.262Z,9.60
2023-08-15T18:08:04.394Z,11.20
2023-08-15T18:10:36.629Z,9.00
2023-08-15T18:13:06.048Z,8.90
2023-08-15T18:16:00.303Z,8.50
2023-08-15T18:20:11.364Z,7.20
2023-08-15T18:24:21.655Z,7.80
2023-08-15T18:28:13.394Z,8.10
2023-08-15T18:32:08.595Z,8.40
2023-08-15T18:36:17.514Z,23.70
2023-08-15T18:40:00.581Z,14.70
2023-08-15T18:43:51.158Z,15.70
2023-08-15T18:47:52.199Z,14.80
2023-08-15T18:51:22.529Z,12.10
2023-08-15T18:55:14.769Z,13.20
2023-08-15T18:59:06.117Z,10.30
2023-08-15T19:02:59.655Z,10.80
2023-08-15T19:06:51.449Z,15.30
2023-08-15T19:10:45.411Z,14.50
2023-08-15T19:14:35.778Z,14.00
2023-08-15T19:18:27.136Z,10.50
2023-08-15T19:22:20.464Z,11.40
2023-08-15T19:26:30.831Z,12.60
2023-08-15T19:30:19.931Z,9.90
2023-08-15T19:34:11.198Z,10.10
2023-08-15T19:38:04.378Z,12.00
2023-08-15T19:41:57.475Z,11.50
2023-08-15T19:46:09.358Z,11.20
2023-08-15T19:50:08.526Z,9.50
2023-08-15T19:53:59.392Z,9.20
2023-08-15T19:57:55.767Z,12.10
2023-08-15T20:01:42.979Z,10.30
2023-08-15T20:05:32.661Z,10.20
2023-08-15T20:09:24.630Z,10.80
2023-08-15T20:13:36.293Z,11.40
2023-08-15T20:17:08.197Z,12.50
2023-08-15T20:21:19.006Z,11.00
2023-08-15T20:25:08.983Z,11.70
2023-08-15T20:28:54.759Z,11.80
2023-08-15T20:32:46.256Z,14.50
2023-08-15T20:36:35.794Z,10.80
2023-08-15T20:40:22.542Z,10.70
2023-08-15T20:44:25.211Z,9.80
2023-08-15T20:48:13.331Z,10.20
2023-08-15T20:52:01.605Z,10.80
2023-08-15T20:55:51.647Z,12.10
2023-08-15T20:59:45.407Z,12.00
